Monday, December 18, 2017, 5:01 PM EST
Back to Local

KMSV, Monticello, Sullivan County International Airport

Location: Swan Lake, NY, United States Lat: 41.7
Local Time: 5:01 PM EST (22:01 GMT) Lon: -74.8
Time Zone: US/Eastern Elev: 1404 ft

Show me the last for .
Show Decoded

2017-12-18 15:56 METAR KMSV 182056Z AUTO 27003KT 10SM OVC075 03/M01 A2992 RMK AO2 SLP146
                 T00281006 56009 =
2017-12-18 14:56 METAR KMSV 181956Z AUTO 26003KT 10SM OVC055 03/M01 A2992 RMK AO2 SLP145
                 T00331006 =
2017-12-18 13:56 METAR KMSV 181856Z AUTO 28005KT 10SM OVC050 03/M01 A2993 RMK AO2 SLP150
                 T00331006 =
2017-12-18 12:56 METAR KMSV 181756Z AUTO 00000KT 8SM OVC055 04/01 A2994 RMK AO2 SLP156 60000
                 T00390006 10039 21033 58027 =
2017-12-18 12:36 METAR KMSV 181736Z AUTO 22004KT 8SM SCT027 BKN042 OVC055 04/01 A2996 RMK AO2 =
2017-12-18 12:25 METAR KMSV 181725Z AUTO 21006KT 6SM BR SCT003 BKN027 OVC042 03/01 A2997 RMK AO2
                 =
2017-12-18 12:13 METAR KMSV 181713Z AUTO 22004KT 4SM BR BKN003 OVC025 03/01 A2998 RMK AO2 CIG
                 003V008 =
2017-12-18 11:56 METAR KMSV 181656Z AUTO 00000KT 2 1/2SM BR OVC003 03/01 A2999 RMK AO2 SLP172
                 T00280006 =
2017-12-18 11:46 METAR KMSV 181646Z AUTO 21004KT 2SM BR OVC003 03/01 A3000 RMK AO2 =
2017-12-18 11:24 METAR KMSV 181624Z AUTO VRB03KT 1 1/4SM BR OVC003 02/00 A3001 RMK AO2 FZRANO =
2017-12-18 10:56 METAR KMSV 181556Z AUTO 00000KT 1/2SM FG OVC003 02/01 A3003 RMK AO2 SLP184
                 T00170006 FZRANO RVRNO =
2017-12-18 09:56 METAR KMSV 181456Z AUTO 00000KT 1/4SM FG OVC003 00/M01 A3005 RMK AO2 SLP192
                 60000 T00001011 55011 FZRANO RVRNO =
2017-12-18 09:19 METAR KMSV 181419Z AUTO 21004KT 1/4SM FZFG OVC003 M01/M01 A3005 RMK AO2 FZRANO
                 RVRNO =
2017-12-18 08:56 METAR KMSV 181356Z AUTO 15003KT 1/2SM FZFG OVC003 M02/M03 A3004 RMK AO2 UPE56
                 SLP190 P0000 T10221033 FZRANO RVRNO =
2017-12-18 08:15 METAR KMSV 181315Z AUTO 00000KT 3/4SM UP BR OVC003 M03/M03 A3006 RMK AO2 P0000
                 FZRANO RVRNO =
2017-12-18 07:56 METAR KMSV 181256Z AUTO 00000KT 1SM UP BR OVC003 M03/M04 A3007 RMK AO2 UPB18
                 SLP202 P0000 T10281039 FZRANO RVRNO =
2017-12-18 07:53 METAR KMSV 181253Z AUTO 00000KT 3/4SM UP BR OVC003 M03/M04 A3007 RMK AO2 UPB18
                 P0000 FZRANO RVRNO =
2017-12-18 07:35 METAR KMSV 181235Z AUTO 00000KT 1/4SM UP FZFG OVC003 M03/M04 A3008 RMK AO2 UPB18
                 P0000 FZRANO RVRNO =
2017-12-18 07:24 METAR KMSV 181224Z AUTO 00000KT 3/4SM UP BR OVC003 M03/M04 A3008 RMK AO2 UPB18
                 P0000 FZRANO RVRNO =
2017-12-18 07:20 METAR KMSV 181220Z AUTO 00000KT 1 3/4SM UP BR OVC003 M03/M05 A3008 RMK AO2 UPB18
                 P0000 FZRANO =
2017-12-18 06:56 METAR KMSV 181156Z AUTO 00000KT 5SM BR OVC003 M03/M05 A3008 RMK AO2 SLP206 6////
                 7//// T10331050 11033 21050 55003 FZRANO =
2017-12-18 06:07 METAR KMSV 181107Z AUTO 00000KT 6SM BR OVC003 M03/M05 A3007 RMK AO2 FZRANO =
2017-12-18 05:56 METAR KMSV 181056Z AUTO 00000KT 6SM BR M03/M05 A3007 RMK AO2 SLP201 T10331050
                 FZRANO =
2017-12-18 05:30 METAR KMSV 181030Z AUTO M03/M06 RMK AO2 PWINO FZRANO RVRNO $ =
2017-12-18 05:07 METAR KMSV 181007Z AUTO 00000KT 10SM OVC004 M04/M06 A3008 RMK AO2 FZRANO TSNO =
2017-12-18 04:56 METAR KMSV 180956Z AUTO 00000KT 10SM OVC006 M04/M06 A3008 RMK AO2 SLP206
                 T10391056 FZRANO =
2017-12-18 03:56 METAR KMSV 180856Z AUTO 00000KT 10SM OVC006 M04/M06 A3009 RMK AO2 SLP208
                 T10391061 58009 FZRANO =
2017-12-18 02:56 METAR KMSV 180756Z AUTO 00000KT 10SM OVC006 M04/M07 A3011 RMK AO2 SLP215
                 T10391067 FZRANO =
2017-12-18 01:56 METAR KMSV 180656Z AUTO 00000KT 10SM OVC006 M04/M07 A3012 RMK AO2 SLP217
                 T10441067 FZRANO =
2017-12-18 01:25 METAR KMSV 180625Z AUTO 06003KT 10SM BKN008 OVC095 M04/M07 A3012 RMK AO2 FZRANO
                 =
2017-12-18 01:17 METAR KMSV 180617Z AUTO 00000KT 10SM SCT008 OVC095 M04/M07 A3012 RMK AO2 FZRANO
                 =
2017-12-18 00:56 METAR KMSV 180556Z AUTO 00000KT 10SM OVC100 M05/M07 A3012 RMK AO2 SLP219 6////
                 T10501072 11033 21050 58014 FZRANO =
2017-12-17 23:56 METAR KMSV 180456Z AUTO 09004KT 10SM OVC045 M04/M07 A3014 RMK AO2 SNB40E50
                 SLP224 P0000 T10441072 410171061 FZRANO =
2017-12-17 22:56 METAR KMSV 180356Z AUTO 08005KT 10SM OVC043 M04/M07 A3015 RMK AO2 SLP230
                 T10441072 FZRANO =
2017-12-17 21:56 METAR KMSV 180256Z AUTO 08004KT 10SM OVC047 M04/M06 A3016 RMK AO2 SLP235 6////
                 T10391061 58008 FZRANO =
2017-12-17 20:56 METAR KMSV 180156Z AUTO 08004KT 9SM CLR M04/M06 A3017 RMK AO2 SNE03B35E52 SLP237
                 P0000 T10391061 FZRANO =
2017-12-17 19:56 METAR KMSV 180056Z AUTO 13004KT 9SM -SN CLR M04/M06 A3019 RMK AO2 SNB50 SLP244
                 P0000 T10391061 FZRANO =
2017-12-17 18:56 METAR KMSV 172356Z AUTO 00000KT 10SM CLR M04/M07 A3019 RMK AO2 SLP245 T10391067
                 11017 21044 53005 FZRANO =
2017-12-17 18:34 METAR KMSV 172334Z AUTO 00000KT 10SM FEW023 M04/M07 A3019 RMK AO2 FZRANO =
2017-12-17 17:56 METAR KMSV 172256Z AUTO 00000KT 10SM OVC020 M04/M07 A3018 RMK AO2 SLP243
                 T10391067 FZRANO =
2017-12-17 17:37 METAR KMSV 172237Z AUTO 34003KT 10SM BKN022 M04/M07 A3019 RMK AO2 FZRANO =

Support USWX by starting your Amazon purchase here.